createdAt,value
2019-05-28T00:00:16.219Z,20.11
2019-05-28T00:01:15.201Z,20.10
2019-05-28T00:02:15.242Z,20.11
2019-05-28T00:03:15.180Z,20.10
2019-05-28T00:04:15.198Z,20.11
2019-05-28T00:05:15.160Z,20.11
2019-05-28T00:06:15.148Z,20.11
2019-05-28T00:07:15.137Z,20.11
2019-05-28T00:08:15.120Z,20.11
2019-05-28T00:09:15.120Z,20.11
2019-05-28T00:10:15.203Z,20.10
2019-05-28T00:11:15.092Z,20.10
2019-05-28T00:12:15.077Z,20.11
2019-05-28T00:13:15.067Z,20.10
2019-05-28T00:14:15.081Z,20.10
2019-05-28T00:15:15.063Z,20.10
2019-05-28T00:16:15.034Z,20.11
2019-05-28T00:17:15.027Z,20.11
2019-05-28T00:18:15.009Z,20.13
2019-05-28T00:19:15.001Z,20.10
2019-05-28T00:20:15.007Z,20.11
2019-05-28T00:21:15.009Z,20.11
2019-05-28T00:22:14.970Z,20.11
2019-05-28T00:23:14.955Z,20.11
2019-05-28T00:24:14.946Z,20.10
2019-05-28T00:25:14.936Z,20.11
2019-05-28T00:26:14.921Z,20.11
2019-05-28T00:27:14.944Z,20.10
2019-05-28T00:28:14.896Z,20.10
2019-05-28T00:29:14.885Z,20.11
2019-05-28T00:30:20.346Z,20.11
2019-05-28T00:31:15.864Z,20.10
2019-05-28T00:32:14.854Z,20.11
2019-05-28T00:33:14.888Z,20.10
2019-05-28T00:34:14.840Z,20.11
2019-05-28T00:35:14.822Z,20.10
2019-05-28T00:36:14.808Z,20.10
2019-05-28T00:37:14.797Z,20.10
2019-05-28T00:38:14.791Z,20.10
2019-05-28T00:39:14.807Z,20.11
2019-05-28T00:40:14.768Z,20.11
2019-05-28T00:41:14.755Z,20.11
2019-05-28T00:42:14.744Z,20.10
2019-05-28T00:43:14.737Z,20.11
2019-05-28T00:44:14.726Z,20.10
2019-05-28T00:45:14.731Z,20.10
2019-05-28T00:46:14.703Z,20.10
2019-05-28T00:47:14.696Z,20.10
2019-05-28T00:48:14.697Z,20.10
2019-05-28T00:49:14.672Z,20.10
2019-05-28T00:50:14.681Z,20.10
2019-05-28T00:51:14.647Z,20.11
2019-05-28T00:52:14.635Z,20.10
2019-05-28T00:53:14.656Z,20.10
2019-05-28T00:54:14.619Z,20.10
2019-05-28T00:55:14.607Z,20.10
2019-05-28T00:56:14.594Z,20.11
2019-05-28T00:57:14.579Z,20.11
2019-05-28T00:58:14.574Z,20.10
2019-05-28T00:59:14.598Z,20.10
2019-05-28T01:00:14.567Z,20.10
2019-05-28T01:01:14.540Z,20.11
2019-05-28T01:02:14.534Z,20.09
2019-05-28T01:03:14.519Z,20.09
2019-05-28T01:04:14.512Z,20.10
2019-05-28T01:05:14.512Z,20.09
2019-05-28T01:06:14.509Z,20.11
2019-05-28T01:07:14.484Z,20.10
2019-05-28T01:08:14.466Z,20.10
2019-05-28T01:09:14.470Z,20.10
2019-05-28T01:10:14.445Z,20.10
2019-05-28T01:11:14.434Z,20.10
2019-05-28T01:12:14.439Z,20.09
2019-05-28T01:13:14.420Z,20.09
2019-05-28T01:14:14.397Z,20.10
2019-05-28T01:15:14.387Z,20.09
2019-05-28T01:16:14.376Z,20.09
2019-05-28T01:17:14.388Z,20.10
2019-05-28T01:18:14.352Z,20.09
2019-05-28T01:19:14.342Z,20.07
2019-05-28T01:20:14.331Z,20.11
2019-05-28T01:21:14.358Z,20.09
2019-05-28T01:22:14.309Z,20.10
2019-05-28T01:23:14.313Z,20.09
2019-05-28T01:24:14.284Z,20.10
2019-05-28T01:25:16.605Z,20.09
2019-05-28T01:26:14.263Z,20.10
2019-05-28T01:27:14.273Z,20.10
2019-05-28T01:28:14.240Z,20.11
2019-05-28T01:29:14.234Z,20.09
2019-05-28T01:30:14.222Z,20.10
2019-05-28T01:31:14.209Z,20.09
2019-05-28T01:32:14.216Z,20.10
2019-05-28T01:33:14.189Z,20.09
2019-05-28T01:34:14.176Z,20.09
2019-05-28T01:35:14.162Z,20.09
2019-05-28T01:36:14.160Z,20.10
2019-05-28T01:37:14.163Z,20.07
2019-05-28T01:38:14.132Z,20.07
2019-05-28T01:39:14.121Z,20.09
2019-05-28T01:40:14.115Z,20.09
2019-05-28T01:41:14.102Z,20.09
2019-05-28T01:42:14.087Z,20.09
2019-05-28T01:43:14.100Z,20.09
2019-05-28T01:44:14.070Z,20.10
2019-05-28T01:45:14.053Z,20.10
2019-05-28T01:46:14.062Z,20.10
2019-05-28T01:47:14.038Z,20.09
2019-05-28T01:48:14.057Z,20.10
2019-05-28T01:49:14.013Z,20.10
2019-05-28T01:50:14.007Z,20.10
2019-05-28T01:51:13.994Z,20.09
2019-05-28T01:52:13.978Z,20.10
2019-05-28T01:53:13.972Z,20.10
2019-05-28T01:54:13.992Z,20.09
2019-05-28T01:55:13.951Z,20.10
2019-05-28T01:56:13.940Z,20.09
2019-05-28T01:57:13.926Z,20.10
2019-05-28T01:58:13.913Z,20.09
2019-05-28T01:59:13.921Z,20.10
2019-05-28T02:00:13.941Z,20.10
2019-05-28T02:01:13.888Z,20.09
2019-05-28T02:02:13.871Z,20.09
2019-05-28T02:03:13.854Z,20.07
2019-05-28T02:04:13.846Z,20.09
2019-05-28T02:05:13.835Z,20.09
2019-05-28T02:06:13.845Z,20.09
2019-05-28T02:07:13.833Z,20.09
2019-05-28T02:08:13.808Z,20.10
2019-05-28T02:09:13.808Z,20.10
2019-05-28T02:10:13.780Z,20.09
2019-05-28T02:11:13.772Z,20.09
2019-05-28T02:12:13.787Z,20.07
2019-05-28T02:13:13.748Z,20.07
2019-05-28T02:14:13.737Z,20.09
2019-05-28T02:15:13.729Z,20.09
2019-05-28T02:16:13.725Z,20.09
2019-05-28T02:17:13.709Z,20.07
2019-05-28T02:18:13.723Z,20.09
2019-05-28T02:19:13.684Z,20.09
2019-05-28T02:20:13.677Z,20.09
2019-05-28T02:21:13.683Z,20.09
2019-05-28T02:22:13.662Z,20.10
2019-05-28T02:23:13.645Z,20.10
2019-05-28T02:24:13.634Z,20.09
2019-05-28T02:25:13.624Z,20.09
2019-05-28T02:26:13.627Z,20.09
2019-05-28T02:27:13.614Z,20.09
2019-05-28T02:28:20.525Z,20.09
2019-05-28T02:29:13.572Z,20.09
2019-05-28T02:30:13.581Z,20.09
2019-05-28T02:31:26.827Z,20.09
2019-05-28T02:32:14.582Z,20.07
2019-05-28T02:33:13.556Z,20.09
2019-05-28T02:34:13.522Z,20.10
2019-05-28T02:35:13.507Z,20.09
2019-05-28T02:36:13.495Z,20.07
2019-05-28T02:37:13.486Z,20.07
2019-05-28T02:38:13.536Z,20.09
2019-05-28T02:39:13.466Z,20.07
2019-05-28T02:40:13.454Z,20.09
2019-05-28T02:41:13.437Z,20.09
2019-05-28T02:42:13.452Z,20.09
2019-05-28T02:43:13.418Z,20.07
2019-05-28T02:44:13.435Z,20.07
2019-05-28T02:45:13.411Z,20.07
2019-05-28T02:46:13.386Z,20.09
2019-05-28T02:47:13.376Z,20.07
2019-05-28T02:48:13.364Z,20.09
2019-05-28T02:49:13.391Z,20.09
2019-05-28T02:50:13.340Z,20.09
2019-05-28T02:51:13.329Z,20.09
2019-05-28T02:52:13.320Z,20.09
2019-05-28T02:53:13.320Z,20.09
2019-05-28T02:54:13.298Z,20.07
2019-05-28T02:55:13.322Z,20.07
2019-05-28T02:56:13.274Z,20.09
2019-05-28T02:57:13.276Z,20.09
2019-05-28T02:58:13.255Z,20.09
2019-05-28T02:59:13.248Z,20.09
2019-05-28T03:00:13.283Z,20.07
2019-05-28T03:01:13.229Z,20.09
2019-05-28T03:02:13.215Z,20.07
2019-05-28T03:03:13.204Z,20.09
2019-05-28T03:04:13.193Z,20.07
2019-05-28T03:05:13.200Z,20.07
2019-05-28T03:06:13.207Z,20.09
2019-05-28T03:07:13.160Z,20.07
2019-05-28T03:08:13.147Z,20.07
2019-05-28T03:09:13.137Z,20.09
2019-05-28T03:10:13.127Z,20.09
2019-05-28T03:11:13.111Z,20.09
2019-05-28T03:12:13.130Z,20.09
2019-05-28T03:13:13.094Z,20.09
2019-05-28T03:14:13.079Z,20.07
2019-05-28T03:15:13.068Z,20.09
2019-05-28T03:16:13.061Z,20.09
2019-05-28T03:17:13.087Z,20.07
2019-05-28T03:18:13.055Z,20.09
2019-05-28T03:19:13.030Z,20.07
2019-05-28T03:20:13.015Z,20.10
2019-05-28T03:21:12.998Z,20.07
2019-05-28T03:22:12.992Z,20.07
2019-05-28T03:23:13.021Z,20.07
2019-05-28T03:24:12.975Z,20.07
2019-05-28T03:25:12.959Z,20.07
2019-05-28T03:26:12.949Z,20.07
2019-05-28T03:27:12.940Z,20.07
2019-05-28T03:28:12.952Z,20.07
2019-05-28T03:29:12.943Z,20.07
2019-05-28T03:30:12.956Z,20.07
2019-05-28T03:31:12.893Z,20.09
2019-05-28T03:32:12.884Z,20.06
2019-05-28T03:33:12.871Z,20.09
2019-05-28T03:34:12.859Z,20.07
2019-05-28T03:35:12.844Z,20.07
2019-05-28T03:36:12.864Z,20.07
2019-05-28T03:37:12.854Z,20.07
2019-05-28T03:38:12.816Z,20.09
2019-05-28T03:39:12.801Z,20.09
2019-05-28T03:40:12.797Z,20.07
2019-05-28T03:41:12.796Z,20.06
2019-05-28T03:42:12.807Z,20.07
2019-05-28T03:43:12.758Z,20.07
2019-05-28T03:44:12.842Z,20.07
2019-05-28T03:45:12.743Z,20.07
2019-05-28T03:46:12.723Z,20.07
2019-05-28T03:47:12.713Z,20.07
2019-05-28T03:48:12.704Z,20.07
2019-05-28T03:49:12.691Z,20.07
2019-05-28T03:50:12.708Z,20.07
2019-05-28T03:51:12.726Z,20.07
2019-05-28T03:52:12.658Z,20.07
2019-05-28T03:53:12.647Z,20.07
2019-05-28T03:54:12.640Z,20.07
2019-05-28T03:55:12.622Z,20.07
2019-05-28T03:56:12.614Z,20.09
2019-05-28T03:57:12.632Z,20.07
2019-05-28T03:58:12.592Z,20.06
2019-05-28T03:59:12.586Z,20.07
2019-05-28T04:00:12.573Z,20.07
2019-05-28T04:01:12.556Z,20.07
2019-05-28T04:02:23.214Z,20.07
2019-05-28T04:03:13.538Z,20.07
2019-05-28T04:04:12.529Z,20.06
2019-05-28T04:05:12.514Z,20.07
2019-05-28T04:06:12.505Z,20.06
2019-05-28T04:07:12.493Z,20.07
2019-05-28T04:08:12.535Z,20.07
2019-05-28T04:09:12.475Z,20.06
2019-05-28T04:10:12.463Z,20.09
2019-05-28T04:11:12.454Z,20.07
2019-05-28T04:12:12.442Z,20.07
2019-05-28T04:13:12.430Z,20.07
2019-05-28T04:14:12.490Z,20.07
2019-05-28T04:15:12.410Z,20.07
2019-05-28T04:16:12.401Z,20.06
2019-05-28T04:17:12.382Z,20.07
2019-05-28T04:18:12.370Z,20.07
2019-05-28T04:19:12.364Z,20.06
2019-05-28T04:20:12.385Z,20.06
2019-05-28T04:21:12.335Z,20.07
2019-05-28T04:22:12.326Z,20.07
2019-05-28T04:23:12.313Z,20.07
2019-05-28T04:24:12.315Z,20.07
2019-05-28T04:25:12.297Z,20.09
2019-05-28T04:26:12.309Z,20.06
2019-05-28T04:27:12.273Z,20.06
2019-05-28T04:28:12.259Z,20.07
2019-05-28T04:29:12.388Z,20.07
2019-05-28T04:30:12.476Z,20.07
2019-05-28T04:31:12.274Z,20.06
2019-05-28T04:32:12.218Z,20.06
2019-05-28T04:33:12.203Z,20.07
2019-05-28T04:34:12.197Z,20.07
2019-05-28T04:35:12.185Z,20.07
2019-05-28T04:36:12.172Z,20.09
2019-05-28T04:37:12.208Z,20.07
2019-05-28T04:38:12.156Z,20.06
2019-05-28T04:39:12.145Z,20.07
2019-05-28T04:40:12.154Z,20.06
2019-05-28T04:41:12.115Z,20.06
2019-05-28T04:42:12.137Z,20.07
2019-05-28T04:43:12.099Z,20.07
2019-05-28T04:44:12.082Z,20.07
2019-05-28T04:45:12.073Z,20.07
2019-05-28T04:46:12.065Z,20.07
2019-05-28T04:47:12.049Z,20.06
2019-05-28T04:48:12.074Z,20.06
2019-05-28T04:49:12.026Z,20.06
2019-05-28T04:50:12.015Z,20.06
2019-05-28T04:51:12.006Z,20.06
2019-05-28T04:52:11.997Z,20.07
2019-05-28T04:53:11.990Z,20.06
2019-05-28T04:54:12.002Z,20.07
2019-05-28T04:55:11.960Z,20.07
2019-05-28T04:56:11.954Z,20.06
2019-05-28T04:57:11.940Z,20.06
2019-05-28T04:58:11.936Z,20.07
2019-05-28T04:59:11.961Z,20.07
2019-05-28T05:00:11.915Z,20.06
2019-05-28T05:01:11.906Z,20.06
2019-05-28T05:02:11.883Z,20.07
2019-05-28T05:03:11.893Z,20.07
2019-05-28T05:04:11.864Z,20.07
2019-05-28T05:05:11.894Z,20.07
2019-05-28T05:06:11.838Z,20.04
2019-05-28T05:07:11.834Z,20.07
2019-05-28T05:08:11.823Z,20.06
2019-05-28T05:09:11.808Z,20.07
2019-05-28T05:10:11.799Z,20.06
2019-05-28T05:11:11.822Z,20.06
2019-05-28T05:12:11.777Z,20.07
2019-05-28T05:13:11.765Z,20.06
2019-05-28T05:14:11.763Z,20.06
2019-05-28T05:15:11.747Z,20.07
2019-05-28T05:16:11.737Z,20.07
2019-05-28T05:17:11.751Z,20.06
2019-05-28T05:18:11.711Z,20.06
2019-05-28T05:19:11.710Z,20.07
2019-05-28T05:20:11.688Z,20.07
2019-05-28T05:21:11.672Z,20.07
2019-05-28T05:22:11.709Z,20.07
2019-05-28T05:23:11.660Z,20.06
2019-05-28T05:24:11.643Z,20.07
2019-05-28T05:25:11.627Z,20.07
2019-05-28T05:26:11.626Z,20.07
2019-05-28T05:27:11.604Z,20.07
2019-05-28T05:28:11.639Z,20.07
2019-05-28T05:29:11.606Z,20.06
2019-05-28T05:30:11.595Z,20.07
2019-05-28T05:31:11.569Z,20.06
2019-05-28T05:32:11.554Z,20.07
2019-05-28T05:33:19.983Z,20.07
2019-05-28T05:34:12.558Z,20.04
2019-05-28T05:35:11.520Z,20.07
2019-05-28T05:36:11.517Z,20.07
2019-05-28T05:37:11.501Z,20.06
2019-05-28T05:38:11.493Z,20.07
2019-05-28T05:39:11.476Z,20.06
2019-05-28T05:40:11.500Z,20.06
2019-05-28T05:41:11.456Z,20.07
2019-05-28T05:42:11.446Z,20.09
2019-05-28T05:43:11.433Z,20.07
2019-05-28T05:44:11.419Z,20.06
2019-05-28T05:45:11.438Z,20.06
2019-05-28T05:46:11.405Z,20.07
2019-05-28T05:47:11.395Z,20.07
2019-05-28T05:48:11.385Z,20.07
2019-05-28T05:49:11.371Z,20.07
2019-05-28T05:50:11.399Z,20.07
2019-05-28T05:51:11.343Z,20.07
2019-05-28T05:52:11.335Z,20.07
2019-05-28T05:53:11.320Z,20.06
2019-05-28T05:54:11.313Z,20.07
2019-05-28T05:55:11.296Z,20.06
2019-05-28T05:56:11.320Z,20.07
2019-05-28T05:57:11.274Z,20.07
2019-05-28T05:58:11.264Z,20.07
2019-05-28T05:59:11.257Z,20.07
2019-05-28T06:00:11.770Z,20.09
2019-05-28T06:01:11.319Z,20.06
2019-05-28T06:02:11.221Z,20.07
2019-05-28T06:03:11.208Z,20.06
2019-05-28T06:04:11.193Z,20.07
2019-05-28T06:05:11.189Z,20.06
2019-05-28T06:06:11.172Z,20.07
2019-05-28T06:07:11.193Z,20.06
2019-05-28T06:08:11.152Z,20.07
2019-05-28T06:09:11.190Z,20.07
2019-05-28T06:10:11.131Z,20.06
2019-05-28T06:11:11.117Z,20.06
2019-05-28T06:12:11.111Z,20.07
2019-05-28T06:13:11.101Z,20.07
2019-05-28T06:14:11.084Z,20.06
2019-05-28T06:15:11.135Z,20.06
2019-05-28T06:16:11.064Z,20.07
2019-05-28T06:17:11.052Z,20.07
2019-05-28T06:18:11.104Z,20.07
2019-05-28T06:19:11.027Z,20.07
2019-05-28T06:20:11.021Z,20.07
2019-05-28T06:21:16.269Z,20.07
2019-05-28T06:22:12.003Z,20.07
2019-05-28T06:23:10.981Z,20.06
2019-05-28T06:24:11.000Z,20.07
2019-05-28T06:25:10.959Z,20.07
2019-05-28T06:26:10.965Z,20.06
2019-05-28T06:27:10.938Z,20.07
2019-05-28T06:28:10.926Z,20.06
2019-05-28T06:29:10.962Z,20.06
2019-05-28T06:30:10.907Z,20.07
2019-05-28T06:31:10.898Z,20.07
2019-05-28T06:32:10.889Z,20.07
2019-05-28T06:33:10.870Z,20.06
2019-05-28T06:34:10.861Z,20.07
2019-05-28T06:35:10.875Z,20.07
2019-05-28T06:36:10.894Z,20.07
2019-05-28T06:37:10.852Z,20.07
2019-05-28T06:38:10.815Z,20.06
2019-05-28T06:39:10.809Z,20.06
2019-05-28T06:40:10.824Z,20.07
2019-05-28T06:41:10.790Z,20.07
2019-05-28T06:42:10.808Z,20.06
2019-05-28T06:43:10.759Z,20.07
2019-05-28T06:44:10.753Z,20.06
2019-05-28T06:45:10.741Z,20.07
2019-05-28T06:46:10.721Z,20.07
2019-05-28T06:47:10.749Z,20.07
2019-05-28T06:48:10.700Z,20.06
2019-05-28T06:49:10.692Z,20.06
2019-05-28T06:50:12.158Z,20.07
2019-05-28T06:51:10.669Z,20.06
2019-05-28T06:52:10.730Z,20.07
2019-05-28T06:53:10.653Z,20.06
2019-05-28T06:54:11.880Z,20.07
2019-05-28T06:55:10.680Z,20.07
2019-05-28T06:56:10.619Z,20.07
2019-05-28T06:57:22.448Z,20.07
2019-05-28T06:58:11.623Z,20.06
2019-05-28T06:59:10.577Z,20.07
2019-05-28T07:00:10.619Z,20.07
2019-05-28T07:01:10.569Z,20.07
2019-05-28T07:02:10.552Z,20.07
2019-05-28T07:03:10.533Z,20.04
2019-05-28T07:04:14.372Z,20.06
2019-05-28T07:05:11.551Z,20.07
2019-05-28T07:06:10.504Z,20.07
2019-05-28T07:07:10.496Z,20.06
2019-05-28T07:08:10.512Z,20.07
2019-05-28T07:09:10.468Z,20.06
2019-05-28T07:10:10.461Z,20.06
2019-05-28T07:11:10.444Z,20.07
2019-05-28T07:12:10.475Z,20.06
2019-05-28T07:13:10.429Z,20.06
2019-05-28T07:14:10.413Z,20.07
2019-05-28T07:15:10.406Z,20.07
2019-05-28T07:16:10.392Z,20.07
2019-05-28T07:17:10.381Z,20.06
2019-05-28T07:18:10.421Z,20.06
2019-05-28T07:19:24.125Z,20.06
2019-05-28T07:20:11.351Z,20.06
2019-05-28T07:21:10.361Z,20.07
2019-05-28T07:22:10.353Z,20.07
2019-05-28T07:23:10.337Z,20.07
2019-05-28T07:24:10.304Z,20.07
2019-05-28T07:25:10.333Z,20.07
2019-05-28T07:26:10.276Z,20.07
2019-05-28T07:27:10.300Z,20.07
2019-05-28T07:28:11.956Z,20.07
2019-05-28T07:29:10.249Z,20.06
2019-05-28T07:30:10.245Z,20.06
2019-05-28T07:31:10.229Z,20.07
2019-05-28T07:32:10.213Z,20.07
2019-05-28T07:33:10.250Z,20.07
2019-05-28T07:34:10.193Z,20.09
2019-05-28T07:35:10.181Z,20.07
2019-05-28T07:36:10.170Z,20.09
2019-05-28T07:37:10.215Z,20.09
2019-05-28T07:38:10.209Z,20.09
2019-05-28T07:39:12.304Z,20.09
2019-05-28T07:40:10.196Z,20.07
2019-05-28T07:41:10.114Z,20.07
2019-05-28T07:42:10.102Z,20.07
2019-05-28T07:43:10.092Z,20.09
2019-05-28T07:44:10.095Z,20.09
2019-05-28T07:45:10.102Z,20.09
2019-05-28T07:46:10.062Z,20.09
2019-05-28T07:47:11.218Z,20.09
2019-05-28T07:48:10.036Z,20.09
2019-05-28T07:49:10.039Z,20.09
2019-05-28T07:50:10.056Z,20.09
2019-05-28T07:51:10.009Z,20.09
2019-05-28T07:52:09.989Z,20.10
2019-05-28T07:53:09.977Z,20.07
2019-05-28T07:54:09.988Z,20.09
2019-05-28T07:55:09.958Z,20.10
2019-05-28T07:56:09.996Z,20.09
2019-05-28T07:57:09.939Z,20.09
2019-05-28T07:58:09.949Z,20.10
2019-05-28T07:59:09.908Z,20.09
2019-05-28T08:00:09.907Z,20.09
2019-05-28T08:01:09.918Z,20.10
2019-05-28T08:02:09.883Z,20.09
2019-05-28T08:03:09.907Z,20.10
2019-05-28T08:04:09.852Z,20.10
2019-05-28T08:05:09.849Z,20.10
2019-05-28T08:06:09.838Z,20.11
2019-05-28T08:07:09.860Z,20.11
2019-05-28T08:08:09.809Z,20.11
2019-05-28T08:09:09.836Z,20.13
2019-05-28T08:10:09.788Z,20.13
2019-05-28T08:11:09.780Z,20.13
2019-05-28T08:12:09.767Z,20.14
2019-05-28T08:13:09.754Z,20.14
2019-05-28T08:14:09.749Z,20.14
2019-05-28T08:15:09.762Z,20.16
2019-05-28T08:16:18.380Z,20.18
2019-05-28T08:17:10.712Z,20.16
2019-05-28T08:18:09.706Z,20.18
2019-05-28T08:19:09.690Z,20.19
2019-05-28T08:20:09.717Z,20.19
2019-05-28T08:21:09.671Z,20.18
2019-05-28T08:22:13.374Z,20.18
2019-05-28T08:23:09.643Z,20.19
2019-05-28T08:24:09.636Z,20.19
2019-05-28T08:25:27.529Z,20.19
2019-05-28T08:26:10.613Z,20.21
2019-05-28T08:27:09.639Z,20.19
2019-05-28T08:28:20.035Z,20.21
2019-05-28T08:29:10.576Z,20.21
2019-05-28T08:30:09.572Z,20.22
2019-05-28T08:31:15.425Z,20.24
2019-05-28T08:32:10.567Z,20.22
2019-05-28T08:33:09.791Z,20.25
2019-05-28T08:34:09.546Z,20.26
2019-05-28T08:35:09.511Z,20.28
2019-05-28T08:36:09.535Z,20.26
2019-05-28T08:37:09.483Z,20.28
2019-05-28T08:38:09.519Z,20.29
2019-05-28T08:39:09.469Z,20.31
2019-05-28T08:40:09.450Z,20.32
2019-05-28T08:41:09.457Z,20.32
2019-05-28T08:42:09.436Z,20.36
2019-05-28T08:43:09.501Z,20.37
2019-05-28T08:44:09.437Z,20.37
2019-05-28T08:45:09.402Z,20.37
2019-05-28T08:46:09.386Z,20.37
2019-05-28T08:47:09.403Z,20.39
2019-05-28T08:48:09.362Z,20.37
2019-05-28T08:49:09.408Z,20.39
2019-05-28T08:50:09.344Z,20.37
2019-05-28T08:51:10.351Z,20.37
2019-05-28T08:52:09.316Z,20.40
2019-05-28T08:53:09.326Z,20.37
2019-05-28T08:54:09.393Z,20.40
2019-05-28T08:55:09.292Z,20.40
2019-05-28T08:56:09.277Z,20.40
2019-05-28T08:57:09.269Z,20.39
2019-05-28T08:58:09.405Z,20.39
2019-05-28T08:59:09.239Z,20.40
2019-05-28T09:00:09.281Z,20.40
2019-05-28T09:01:09.262Z,20.39
2019-05-28T09:02:26.433Z,20.40
2019-05-28T09:03:10.218Z,20.40
2019-05-28T09:04:09.185Z,20.41
2019-05-28T09:05:25.271Z,20.41
2019-05-28T09:06:10.189Z,20.39
2019-05-28T09:07:09.150Z,20.41
2019-05-28T09:08:09.137Z,20.40
2019-05-28T09:09:09.163Z,20.41
2019-05-28T09:10:09.115Z,20.40
2019-05-28T09:11:09.378Z,20.43
2019-05-28T09:12:09.731Z,20.43
2019-05-28T09:13:09.082Z,20.43
2019-05-28T09:14:09.118Z,20.44
2019-05-28T09:15:09.067Z,20.44
2019-05-28T09:16:09.056Z,20.47
2019-05-28T09:17:09.041Z,20.47
2019-05-28T09:18:09.058Z,20.48
2019-05-28T09:19:10.521Z,20.48
2019-05-28T09:20:09.033Z,20.50
2019-05-28T09:21:08.994Z,20.50
2019-05-28T09:22:24.430Z,20.51
2019-05-28T09:23:09.969Z,20.50
2019-05-28T09:24:08.970Z,20.51
2019-05-28T09:25:08.981Z,20.50
2019-05-28T09:26:08.938Z,20.52
2019-05-28T09:27:08.928Z,20.51
2019-05-28T09:28:08.922Z,20.52
2019-05-28T09:29:08.904Z,20.52
2019-05-28T09:30:08.898Z,20.52
2019-05-28T09:31:08.923Z,20.52
2019-05-28T09:32:08.867Z,20.55
2019-05-28T09:33:08.864Z,20.52
2019-05-28T09:34:08.853Z,20.55
2019-05-28T09:35:08.843Z,20.55
2019-05-28T09:36:09.519Z,20.56
2019-05-28T09:37:08.850Z,20.55
2019-05-28T09:38:08.852Z,20.56
2019-05-28T09:39:08.803Z,20.56
2019-05-28T09:40:08.786Z,20.56
2019-05-28T09:41:08.774Z,20.55
2019-05-28T09:42:08.761Z,20.56
2019-05-28T09:43:08.751Z,20.56
2019-05-28T09:44:08.772Z,20.56
2019-05-28T09:45:21.771Z,20.56
2019-05-28T09:46:09.718Z,20.58
2019-05-28T09:47:08.707Z,20.58
2019-05-28T09:48:08.693Z,20.58
2019-05-28T09:49:08.683Z,20.56
2019-05-28T09:50:27.102Z,20.58
2019-05-28T09:51:09.687Z,20.58
2019-05-28T09:52:08.651Z,20.58
2019-05-28T09:53:08.656Z,20.59
2019-05-28T09:54:08.625Z,20.58
2019-05-28T09:55:08.625Z,20.59
2019-05-28T09:56:08.637Z,20.58
2019-05-28T09:57:08.603Z,20.59
2019-05-28T09:58:08.581Z,20.60
2019-05-28T09:59:08.569Z,20.60
2019-05-28T10:00:08.596Z,20.60
2019-05-28T10:01:08.550Z,20.60
2019-05-28T10:02:08.562Z,20.59
2019-05-28T10:03:08.525Z,20.60
2019-05-28T10:04:08.520Z,20.59
2019-05-28T10:05:08.511Z,20.60
2019-05-28T10:06:17.033Z,20.59
2019-05-28T10:07:09.583Z,20.59
2019-05-28T10:08:08.477Z,20.60
2019-05-28T10:09:08.458Z,20.60
2019-05-28T10:10:08.447Z,20.60
2019-05-28T10:11:08.439Z,20.59
2019-05-28T10:12:08.485Z,20.60
2019-05-28T10:13:08.421Z,20.62
2019-05-28T10:14:08.408Z,20.59
2019-05-28T10:15:08.399Z,20.60
2019-05-28T10:16:08.388Z,20.60
2019-05-28T10:17:08.416Z,20.59
2019-05-28T10:18:08.364Z,20.60
2019-05-28T10:19:08.356Z,20.60
2019-05-28T10:20:08.337Z,20.60
2019-05-28T10:21:18.269Z,20.62
2019-05-28T10:22:09.356Z,20.62
2019-05-28T10:23:08.312Z,20.62
2019-05-28T10:24:08.300Z,20.65
2019-05-28T10:25:08.296Z,20.65
2019-05-28T10:26:08.295Z,20.65
2019-05-28T10:27:08.265Z,20.66
2019-05-28T10:28:08.291Z,20.66
2019-05-28T10:29:08.254Z,20.66
2019-05-28T10:30:08.227Z,20.66
2019-05-28T10:31:08.223Z,20.67
2019-05-28T10:32:08.206Z,20.67
2019-05-28T10:33:08.193Z,20.69
2019-05-28T10:34:08.212Z,20.69
2019-05-28T10:35:08.226Z,20.70
2019-05-28T10:36:08.166Z,20.70
2019-05-28T10:37:08.156Z,20.72
2019-05-28T10:38:14.550Z,20.70
2019-05-28T10:39:09.134Z,20.72
2019-05-28T10:40:08.167Z,20.72
2019-05-28T10:41:08.110Z,20.72
2019-05-28T10:42:08.096Z,20.72
2019-05-28T10:43:08.083Z,20.74
2019-05-28T10:44:08.078Z,20.74
2019-05-28T10:45:08.069Z,20.72
2019-05-28T10:46:08.534Z,20.75
2019-05-28T10:47:08.040Z,20.74
2019-05-28T10:48:08.054Z,20.74
2019-05-28T10:49:08.030Z,20.74
2019-05-28T10:50:08.013Z,20.72
2019-05-28T10:51:08.001Z,20.74
2019-05-28T10:52:08.034Z,20.72
2019-05-28T10:53:07.984Z,20.70
2019-05-28T10:54:07.970Z,20.72
2019-05-28T10:55:07.962Z,20.70
2019-05-28T10:56:07.948Z,20.70
2019-05-28T10:57:07.933Z,20.69
2019-05-28T10:58:07.975Z,20.69
2019-05-28T10:59:07.918Z,20.69
2019-05-28T11:00:07.907Z,20.67
2019-05-28T11:01:07.885Z,20.67
2019-05-28T11:02:07.877Z,20.67
2019-05-28T11:03:07.862Z,20.66
2019-05-28T11:04:07.892Z,20.66
2019-05-28T11:05:07.848Z,20.66
2019-05-28T11:06:07.833Z,20.66
2019-05-28T11:07:07.827Z,20.65
2019-05-28T11:08:07.811Z,20.66
2019-05-28T11:09:08.873Z,20.65
2019-05-28T11:10:22.501Z,20.65
2019-05-28T11:11:08.781Z,20.65
2019-05-28T11:12:07.776Z,20.65
2019-05-28T11:13:07.756Z,20.65
2019-05-28T11:14:07.743Z,20.65
2019-05-28T11:15:07.740Z,20.65
2019-05-28T11:16:07.753Z,20.66
2019-05-28T11:17:07.717Z,20.66
2019-05-28T11:18:07.702Z,20.65
2019-05-28T11:19:07.717Z,20.65
2019-05-28T11:20:07.680Z,20.65
2019-05-28T11:21:09.681Z,20.65
2019-05-28T11:22:07.657Z,20.63
2019-05-28T11:23:07.755Z,20.65
2019-05-28T11:24:07.629Z,20.63
2019-05-28T11:25:07.666Z,20.63
2019-05-28T11:26:07.614Z,20.65
2019-05-28T11:27:07.604Z,20.62
2019-05-28T11:28:07.593Z,20.63
2019-05-28T11:29:07.632Z,20.63
2019-05-28T11:30:07.570Z,20.62
2019-05-28T11:31:07.609Z,20.63
2019-05-28T11:32:07.802Z,20.63
2019-05-28T11:33:07.536Z,20.63
2019-05-28T11:34:07.585Z,20.62
2019-05-28T11:35:07.539Z,20.63
2019-05-28T11:36:07.499Z,20.63
2019-05-28T11:37:09.936Z,20.62
2019-05-28T11:38:07.477Z,20.62
2019-05-28T11:39:07.464Z,20.62
2019-05-28T11:40:07.482Z,20.62
2019-05-28T11:41:07.442Z,20.62
2019-05-28T11:42:07.440Z,20.63
2019-05-28T11:43:07.422Z,20.62
2019-05-28T11:44:07.433Z,20.65
2019-05-28T11:45:07.964Z,20.63
2019-05-28T11:46:07.389Z,20.65
2019-05-28T11:47:07.379Z,20.63
2019-05-28T11:48:07.459Z,20.65
2019-05-28T11:49:07.364Z,20.65
2019-05-28T11:50:07.346Z,20.65
2019-05-28T11:51:07.368Z,20.63
2019-05-28T11:52:07.383Z,20.63
2019-05-28T11:53:07.323Z,20.65
2019-05-28T11:54:07.300Z,20.65
2019-05-28T11:55:07.290Z,20.65
2019-05-28T11:56:07.281Z,20.65
2019-05-28T11:57:07.280Z,20.66
2019-05-28T11:58:07.291Z,20.66
2019-05-28T11:59:07.251Z,20.66
2019-05-28T12:00:07.236Z,20.66
2019-05-28T12:01:07.231Z,20.66
2019-05-28T12:02:07.210Z,20.67
2019-05-28T12:03:07.235Z,20.66
2019-05-28T12:04:07.195Z,20.67
2019-05-28T12:05:07.178Z,20.67
2019-05-28T12:06:07.191Z,20.66
2019-05-28T12:07:07.174Z,20.66
2019-05-28T12:08:07.143Z,20.66
2019-05-28T12:09:07.182Z,20.66
2019-05-28T12:10:07.130Z,20.66
2019-05-28T12:11:07.152Z,20.67
2019-05-28T12:12:07.101Z,20.67
2019-05-28T12:13:10.565Z,20.67
2019-05-28T12:14:07.081Z,20.67
2019-05-28T12:15:07.100Z,20.67
2019-05-28T12:16:07.051Z,20.67
2019-05-28T12:17:07.050Z,20.67
2019-05-28T12:18:07.035Z,20.67
2019-05-28T12:19:07.021Z,20.67
2019-05-28T12:20:07.030Z,20.69
2019-05-28T12:21:07.031Z,20.69
2019-05-28T12:22:06.994Z,20.67
2019-05-28T12:23:11.560Z,20.69
2019-05-28T12:24:07.971Z,20.67
2019-05-28T12:25:06.958Z,20.67
2019-05-28T12:26:06.988Z,20.69
2019-05-28T12:27:06.933Z,20.69
2019-05-28T12:28:06.928Z,20.69
2019-05-28T12:29:06.924Z,20.67
2019-05-28T12:30:06.922Z,20.67
2019-05-28T12:31:06.893Z,20.65
2019-05-28T12:32:08.534Z,20.66
2019-05-28T12:33:06.867Z,20.65
2019-05-28T12:34:06.860Z,20.65
2019-05-28T12:35:06.845Z,20.65
2019-05-28T12:36:06.836Z,20.65
2019-05-28T12:37:06.855Z,20.65
2019-05-28T12:38:06.813Z,20.63
2019-05-28T12:39:06.798Z,20.63
2019-05-28T12:40:06.796Z,20.62
2019-05-28T12:41:06.780Z,20.63
2019-05-28T12:42:07.479Z,20.63
2019-05-28T12:43:06.813Z,20.63
2019-05-28T12:44:06.755Z,20.62
2019-05-28T12:45:09.848Z,20.62
2019-05-28T12:46:06.727Z,20.62
2019-05-28T12:47:06.711Z,20.62
2019-05-28T12:48:12.294Z,20.62
2019-05-28T12:49:07.722Z,20.63
2019-05-28T12:50:19.202Z,20.63
2019-05-28T12:51:07.680Z,20.60
2019-05-28T12:52:06.654Z,20.62